Time;durP1;ratioP1;P1;durP2;ratioP2;P2;SDS_P1;SDS_P2;PMS_P1;PMS_P2;Temp;Humidity;BMP_temperature;BMP_pressure;BME280_temperature;BME280_humidity;BME280_pressure;Samples;Min_cycle;Max_cycle;Signal;HPM_P1;HPM_P2
2021/09/04 00:01:30;;;;;;;;;;;11.60;90.60;;;;;;5051155;28;19920;-66
2021/09/04 00:03:55;;;;;;;;;;;11.50;90.40;;;;;;5033749;28;19913;-65
2021/09/04 00:06:21;;;;;;;;;;;11.50;90.60;;;;;;5017703;28;19922;-65
2021/09/04 00:08:46;;;;;;;;;;;11.50;90.60;;;;;;5012750;28;19963;-65
2021/09/04 00:11:13;;;;;;;;;;;11.50;90.70;;;;;;5031619;28;19943;-65
2021/09/04 00:13:39;;;;;;;;;;;11.40;90.70;;;;;;5031061;28;20339;-65
2021/09/04 00:16:05;;;;;;;;;;;11.40;90.60;;;;;;5044664;28;19963;-66
2021/09/04 00:18:33;;;;;;;;;;;11.40;90.80;;;;;;5050845;28;20332;-65
2021/09/04 00:21:00;;;;;;;;;;;11.30;90.90;;;;;;5032942;28;19920;-65
2021/09/04 00:23:25;;;;;;;;;;;11.30;90.90;;;;;;5033480;28;19940;-67
2021/09/04 00:25:51;;;;;;;;;;;11.30;90.90;;;;;;5037597;28;19918;-65
2021/09/04 00:28:16;;;;;;;;;;;11.30;90.90;;;;;;5012456;28;19917;-65
2021/09/04 00:30:42;;;;;;;;;;;11.20;90.90;;;;;;5031296;28;19931;-65
2021/09/04 00:33:07;;;;;;;;;;;11.20;91.00;;;;;;5013061;28;19923;-66
2021/09/04 00:35:33;;;;;;;;;;;11.20;91.00;;;;;;5022355;28;20500;-65
2021/09/04 00:37:58;;;;;;;;;;;11.20;91.10;;;;;;5032701;28;20328;-66
2021/09/04 00:40:24;;;;;;;;;;;11.10;91.00;;;;;;5050775;28;19921;-65
2021/09/04 00:42:49;;;;;;;;;;;11.10;91.00;;;;;;5051099;28;19966;-66
2021/09/04 00:45:15;;;;;;;;;;;11.00;90.90;;;;;;5032712;28;19920;-66
2021/09/04 00:47:52;;;;;;;;;;;11.00;91.10;;;;;;5049966;28;19966;-65
2021/09/04 00:50:18;;;;;;;;;;;11.00;91.10;;;;;;5051062;28;19917;-66
2021/09/04 00:52:43;;;;;;;;;;;11.00;91.20;;;;;;5050589;28;19985;-66
2021/09/04 00:55:09;;;;;;;;;;;10.90;91.00;;;;;;5051116;28;19928;-65
2021/09/04 00:57:36;;;;;;;;;;;10.90;91.30;;;;;;5019950;28;19924;-66
2021/09/04 01:00:02;;;;;;;;;;;10.90;91.40;;;;;;5019863;28;19916;-66
2021/09/04 01:02:30;;;;;;;;;;;10.90;91.40;;;;;;5054634;28;20002;-66
2021/09/04 01:04:56;;;;;;;;;;;10.90;91.50;;;;;;5035817;28;20284;-66
2021/09/04 01:07:22;;;;;;;;;;;10.90;91.60;;;;;;5053833;28;19917;-65
2021/09/04 01:09:47;;;;;;;;;;;10.90;91.70;;;;;;5054466;28;19931;-66
2021/09/04 01:12:13;;;;;;;;;;;11.00;91.70;;;;;;5054031;28;20324;-66
2021/09/04 01:14:39;;;;;;;;;;;10.90;91.40;;;;;;5053795;28;20444;-66
2021/09/04 01:17:05;;;;;;;;;;;11.00;91.70;;;;;;5053658;28;20332;-66
2021/09/04 01:19:31;;;;;;;;;;;11.00;91.60;;;;;;5036053;28;19967;-65
2021/09/04 01:21:57;;;;;;;;;;;11.00;91.60;;;;;;5036516;28;20297;-66
2021/09/04 01:24:22;;;;;;;;;;;11.00;91.40;;;;;;5052632;28;19913;-66
2021/09/04 01:26:48;;;;;;;;;;;11.00;91.60;;;;;;5033098;28;19917;-66
2021/09/04 01:29:14;;;;;;;;;;;11.00;91.80;;;;;;5034205;28;19917;-66
2021/09/04 01:31:40;;;;;;;;;;;10.90;91.80;;;;;;5033675;28;19917;-66
2021/09/04 01:34:06;;;;;;;;;;;11.00;91.80;;;;;;5016269;28;19990;-65
2021/09/04 01:36:33;;;;;;;;;;;10.90;91.90;;;;;;5050958;28;20398;-66
2021/09/04 01:38:59;;;;;;;;;;;11.00;92.00;;;;;;5052802;28;19947;-65
2021/09/04 01:41:25;;;;;;;;;;;11.00;92.10;;;;;;5036168;28;19917;-66
2021/09/04 01:43:51;;;;;;;;;;;11.10;92.00;;;;;;5053850;28;20392;-65
2021/09/04 01:46:17;;;;;;;;;;;11.10;92.20;;;;;;5037053;28;19924;-65
2021/09/04 01:48:42;;;;;;;;;;;11.10;92.30;;;;;;5033077;28;20276;-67
2021/09/04 01:51:08;;;;;;;;;;;11.20;92.30;;;;;;5033831;28;19928;-65
2021/09/04 01:53:34;;;;;;;;;;;11.20;92.30;;;;;;5033449;28;19918;-66
2021/09/04 01:56:00;;;;;;;;;;;11.30;92.20;;;;;;5033149;28;20351;-66
2021/09/04 01:58:26;;;;;;;;;;;11.40;92.50;;;;;;5032994;28;19917;-65
2021/09/04 02:00:51;;;;;;;;;;;11.40;92.60;;;;;;5033343;28;19917;-66
2021/09/04 02:03:17;;;;;;;;;;;11.50;92.60;;;;;;5033530;28;19996;-66
2021/09/04 02:05:42;;;;;;;;;;;11.50;92.40;;;;;;5032295;28;19967;-66
2021/09/04 02:08:08;;;;;;;;;;;11.60;92.70;;;;;;5031691;28;19967;-65
2021/09/04 02:10:33;;;;;;;;;;;11.60;92.70;;;;;;5033476;28;19935;-65
2021/09/04 02:12:59;;;;;;;;;;;11.70;92.70;;;;;;5033114;28;19917;-65
2021/09/04 02:15:25;;;;;;;;;;;11.80;92.50;;;;;;5041082;28;19941;-66
2021/09/04 02:17:50;;;;;;;;;;;11.80;92.70;;;;;;5052468;28;20291;-66
2021/09/04 02:20:17;;;;;;;;;;;11.90;92.70;;;;;;5052738;28;19917;-66
2021/09/04 02:22:42;;;;;;;;;;;11.90;92.70;;;;;;5053208;28;19939;-65
2021/09/04 02:25:09;;;;;;;;;;;12.00;92.50;;;;;;5044729;28;19952;-66
2021/09/04 02:27:35;;;;;;;;;;;12.00;92.70;;;;;;5014976;28;20324;-65
2021/09/04 02:30:02;;;;;;;;;;;12.00;92.70;;;;;;5033257;28;20012;-66
2021/09/04 02:32:28;;;;;;;;;;;12.00;92.70;;;;;;5032878;28;19917;-65
2021/09/04 02:34:55;;;;;;;;;;;12.10;92.60;;;;;;5019202;28;19921;-65
2021/09/04 02:37:21;;;;;;;;;;;12.10;92.80;;;;;;5051649;28;19966;-66
2021/09/04 02:39:49;;;;;;;;;;;12.20;92.80;;;;;;5052851;28;19916;-65
2021/09/04 02:42:14;;;;;;;;;;;12.20;92.80;;;;;;5052829;28;20299;-65
2021/09/04 02:44:41;;;;;;;;;;;12.20;92.70;;;;;;5049485;28;20005;-66
2021/09/04 02:47:08;;;;;;;;;;;12.20;92.90;;;;;;5014116;28;19921;-66
2021/09/04 02:49:36;;;;;;;;;;;12.30;92.90;;;;;;5032713;28;19917;-66
2021/09/04 02:52:02;;;;;;;;;;;12.30;92.90;;;;;;5032312;28;19917;-65
2021/09/04 02:54:28;;;;;;;;;;;12.40;92.70;;;;;;5033900;28;20297;-66
2021/09/04 02:56:54;;;;;;;;;;;12.40;92.80;;;;;;5051306;28;19924;-65
2021/09/04 02:59:20;;;;;;;;;;;12.40;92.80;;;;;;5033602;28;20372;-65
2021/09/04 03:01:47;;;;;;;;;;;12.40;92.80;;;;;;5052584;28;20003;-67
2021/09/04 03:04:13;;;;;;;;;;;12.50;92.60;;;;;;5051834;28;20333;-67
2021/09/04 03:06:42;;;;;;;;;;;12.40;92.80;;;;;;5032706;28;19956;-66
2021/09/04 03:09:07;;;;;;;;;;;12.50;92.90;;;;;;5032361;28;20296;-66
2021/09/04 03:11:33;;;;;;;;;;;12.50;92.90;;;;;;5032066;28;19929;-65
2021/09/04 03:14:01;;;;;;;;;;;12.60;92.70;;;;;;5032200;28;19917;-68
2021/09/04 03:16:28;;;;;;;;;;;12.60;92.80;;;;;;5048165;28;20384;-66
2021/09/04 03:18:53;;;;;;;;;;;12.60;92.90;;;;;;5033493;28;20015;-67
2021/09/04 03:21:19;;;;;;;;;;;12.60;92.90;;;;;;5052277;28;19988;-66
2021/09/04 03:23:51;;;;;;;;;;;12.70;92.70;;;;;;5051629;28;19913;-66
2021/09/04 03:26:17;;;;;;;;;;;12.70;92.90;;;;;;5016916;28;19932;-66
2021/09/04 03:28:43;;;;;;;;;;;12.70;92.90;;;;;;5030880;28;19917;-66
2021/09/04 03:31:08;;;;;;;;;;;12.70;92.90;;;;;;5031924;28;19925;-65
2021/09/04 03:33:35;;;;;;;;;;;12.70;92.80;;;;;;5030747;28;20392;-65
2021/09/04 03:36:01;;;;;;;;;;;12.70;92.60;;;;;;5013193;28;19929;-67
2021/09/04 03:38:28;;;;;;;;;;;12.70;92.90;;;;;;5013441;28;19917;-65
2021/09/04 03:40:53;;;;;;;;;;;12.80;92.90;;;;;;5014085;28;19941;-65
2021/09/04 03:43:19;;;;;;;;;;;12.80;92.90;;;;;;5013545;28;19925;-66
2021/09/04 03:45:46;;;;;;;;;;;12.80;92.70;;;;;;5024477;28;19944;-66
2021/09/04 03:48:11;;;;;;;;;;;12.90;92.90;;;;;;5050669;28;20461;-66
2021/09/04 03:50:37;;;;;;;;;;;12.90;92.90;;;;;;5051748;28;20429;-66
2021/09/04 03:53:02;;;;;;;;;;;12.90;92.90;;;;;;5051646;28;20296;-66
2021/09/04 03:55:30;;;;;;;;;;;12.90;92.60;;;;;;5040213;28;19968;-65
2021/09/04 03:57:56;;;;;;;;;;;12.90;92.80;;;;;;5030838;28;19944;-66
2021/09/04 04:00:22;;;;;;;;;;;12.90;92.80;;;;;;5030518;28;19967;-66
2021/09/04 04:02:48;;;;;;;;;;;12.90;92.80;;;;;;5031313;28;20442;-66
2021/09/04 04:05:13;;;;;;;;;;;12.90;92.60;;;;;;5031309;28;20624;-67
2021/09/04 04:07:40;;;;;;;;;;;12.90;92.80;;;;;;5030326;28;20532;-67
2021/09/04 04:10:07;;;;;;;;;;;13.00;92.90;;;;;;5031450;28;20004;-67
2021/09/04 04:12:34;;;;;;;;;;;13.00;92.90;;;;;;5031547;28;19917;-67
2021/09/04 04:15:00;;;;;;;;;;;13.00;92.70;;;;;;5030168;28;19917;-67
2021/09/04 04:17:27;;;;;;;;;;;13.10;92.90;;;;;;4996583;28;19924;-67
2021/09/04 04:19:52;;;;;;;;;;;13.00;92.90;;;;;;5030893;28;19917;-67
2021/09/04 04:22:19;;;;;;;;;;;13.10;92.90;;;;;;5013840;28;19917;-67
2021/09/04 04:24:45;;;;;;;;;;;13.10;92.70;;;;;;5024044;28;19925;-67
2021/09/04 04:27:11;;;;;;;;;;;13.10;92.90;;;;;;5010337;28;20366;-67
2021/09/04 04:29:37;;;;;;;;;;;13.10;92.90;;;;;;4994348;28;20270;-67
2021/09/04 04:32:03;;;;;;;;;;;13.20;92.90;;;;;;5015755;28;20008;-67
2021/09/04 04:34:29;;;;;;;;;;;13.20;92.70;;;;;;5015736;28;20393;-67
2021/09/04 04:36:56;;;;;;;;;;;13.20;92.90;;;;;;5054311;28;19929;-67
2021/09/04 04:39:22;;;;;;;;;;;13.20;92.80;;;;;;5054694;28;19923;-67
2021/09/04 04:41:48;;;;;;;;;;;13.30;92.90;;;;;;5037293;28;19978;-67
2021/09/04 04:44:15;;;;;;;;;;;13.30;92.70;;;;;;5036972;28;19917;-67
2021/09/04 04:46:41;;;;;;;;;;;13.30;92.90;;;;;;5034781;28;19918;-67
2021/09/04 04:49:06;;;;;;;;;;;13.30;92.80;;;;;;5034802;28;19924;-67
2021/09/04 04:51:35;;;;;;;;;;;13.40;92.80;;;;;;5034845;28;20296;-67
2021/09/04 04:54:03;;;;;;;;;;;13.40;92.60;;;;;;5034278;28;20330;-67
2021/09/04 04:56:28;;;;;;;;;;;13.30;92.70;;;;;;5014326;28;19928;-67
2021/09/04 04:58:54;;;;;;;;;;;13.40;93.00;;;;;;5014903;28;19924;-67
2021/09/04 05:01:20;;;;;;;;;;;13.40;92.60;;;;;;5034087;28;20077;-67
2021/09/04 05:03:46;;;;;;;;;;;13.50;92.80;;;;;;5034607;28;19917;-67
2021/09/04 05:06:12;;;;;;;;;;;13.40;92.50;;;;;;5048032;28;19973;-67
2021/09/04 05:08:37;;;;;;;;;;;13.50;92.70;;;;;;5053840;28;19916;-67
2021/09/04 05:11:03;;;;;;;;;;;13.50;92.70;;;;;;5054090;28;19920;-67
2021/09/04 05:13:30;;;;;;;;;;;13.60;92.70;;;;;;5036544;28;19916;-67
2021/09/04 05:15:55;;;;;;;;;;;13.60;92.50;;;;;;5024287;28;20015;-67
2021/09/04 05:18:22;;;;;;;;;;;13.60;92.70;;;;;;5033243;28;19917;-67
2021/09/04 05:20:50;;;;;;;;;;;13.70;92.70;;;;;;5034278;28;20262;-67
2021/09/04 05:23:15;;;;;;;;;;;13.70;92.70;;;;;;5034397;28;20032;-67
2021/09/04 05:25:41;;;;;;;;;;;13.70;92.40;;;;;;5043805;28;19967;-67
2021/09/04 05:28:08;;;;;;;;;;;13.80;92.60;;;;;;5035536;28;19921;-67
2021/09/04 05:30:33;;;;;;;;;;;13.90;92.60;;;;;;5053788;28;19931;-67
2021/09/04 05:32:59;;;;;;;;;;;13.90;92.60;;;;;;5054060;28;19951;-67
2021/09/04 05:35:24;;;;;;;;;;;13.90;92.30;;;;;;5035637;28;19932;-67
2021/09/04 05:37:50;;;;;;;;;;;13.90;92.30;;;;;;5052950;28;20048;-67
2021/09/04 05:40:15;;;;;;;;;;;14.00;92.30;;;;;;5036063;28;19920;-70
2021/09/04 05:42:42;;;;;;;;;;;14.00;92.40;;;;;;5035884;28;19917;-67
2021/09/04 05:45:08;;;;;;;;;;;14.10;92.20;;;;;;5047000;28;19924;-67
2021/09/04 05:47:34;;;;;;;;;;;14.10;92.40;;;;;;5015426;28;19917;-67
2021/09/04 05:50:00;;;;;;;;;;;14.20;92.20;;;;;;5016223;28;19939;-67
2021/09/04 05:52:25;;;;;;;;;;;14.20;92.20;;;;;;5015652;28;19918;-67
2021/09/04 05:54:51;;;;;;;;;;;14.30;92.00;;;;;;5033069;28;19943;-67
2021/09/04 05:57:16;;;;;;;;;;;14.40;92.10;;;;;;5017497;28;19922;-67
2021/09/04 05:59:42;;;;;;;;;;;14.40;92.10;;;;;;4995936;28;19924;-69
2021/09/04 06:02:07;;;;;;;;;;;14.50;92.00;;;;;;4996195;28;19932;-68
2021/09/04 06:04:36;;;;;;;;;;;14.50;91.90;;;;;;5014605;28;19932;-67
2021/09/04 06:07:04;;;;;;;;;;;14.60;91.80;;;;;;5052801;28;20043;-68
2021/09/04 06:09:30;;;;;;;;;;;14.60;91.80;;;;;;5053445;28;19917;-67
2021/09/04 06:11:55;;;;;;;;;;;14.70;91.60;;;;;;5052992;28;20311;-68
2021/09/04 06:14:21;;;;;;;;;;;14.80;91.40;;;;;;5053242;28;19959;-67
2021/09/04 06:16:46;;;;;;;;;;;14.70;91.50;;;;;;5034251;28;19924;-67
2021/09/04 06:19:12;;;;;;;;;;;14.80;91.50;;;;;;5034765;28;19917;-67
2021/09/04 06:21:37;;;;;;;;;;;14.90;91.50;;;;;;5053269;28;19916;-67
2021/09/04 06:24:03;;;;;;;;;;;15.10;91.50;;;;;;5052663;28;20339;-67
2021/09/04 06:26:29;;;;;;;;;;;15.10;91.30;;;;;;5018352;28;19918;-67
2021/09/04 06:28:54;;;;;;;;;;;15.20;91.20;;;;;;5032502;28;19921;-67
2021/09/04 06:31:20;;;;;;;;;;;15.30;91.20;;;;;;5032696;28;20011;-67
2021/09/04 06:33:45;;;;;;;;;;;15.40;91.10;;;;;;5032961;28;19988;-67
2021/09/04 06:36:11;;;;;;;;;;;15.40;91.10;;;;;;5029258;28;20333;-67
2021/09/04 06:38:36;;;;;;;;;;;15.60;91.00;;;;;;5051541;28;19917;-67
2021/09/04 06:41:02;;;;;;;;;;;15.60;90.80;;;;;;5052857;28;19992;-67
2021/09/04 06:43:28;;;;;;;;;;;15.70;90.70;;;;;;5052358;28;20292;-67
2021/09/04 06:45:53;;;;;;;;;;;15.90;90.80;;;;;;5052137;28;20288;-67
2021/09/04 06:48:19;;;;;;;;;;;16.00;90.80;;;;;;5051939;28;19924;-68
2021/09/04 06:50:44;;;;;;;;;;;16.10;90.40;;;;;;5019429;28;20390;-68
2021/09/04 06:53:10;;;;;;;;;;;16.30;90.30;;;;;;5031402;28;19925;-68
2021/09/04 06:55:35;;;;;;;;;;;16.40;89.80;;;;;;5044999;28;20376;-69
2021/09/04 06:58:01;;;;;;;;;;;16.50;90.00;;;;;;5051089;28;19928;-68
2021/09/04 07:00:27;;;;;;;;;;;16.60;89.60;;;;;;5052000;28;19913;-68
2021/09/04 07:02:52;;;;;;;;;;;16.80;89.40;;;;;;5050510;28;19971;-69
2021/09/04 07:05:18;;;;;;;;;;;17.00;89.30;;;;;;5032622;28;19925;-69
2021/09/04 07:07:43;;;;;;;;;;;17.20;88.70;;;;;;5029618;28;20035;-68
2021/09/04 07:10:09;;;;;;;;;;;17.40;87.80;;;;;;5030913;28;19914;-68
2021/09/04 07:12:34;;;;;;;;;;;17.60;87.20;;;;;;5031399;28;19924;-68
2021/09/04 07:15:00;;;;;;;;;;;17.80;86.60;;;;;;5030826;28;19948;-68
2021/09/04 07:17:25;;;;;;;;;;;18.00;85.70;;;;;;5030661;28;19925;-68
2021/09/04 07:19:51;;;;;;;;;;;18.10;84.20;;;;;;5031828;28;19921;-68
2021/09/04 07:22:16;;;;;;;;;;;18.10;83.80;;;;;;5031757;28;20003;-68
2021/09/04 07:24:42;;;;;;;;;;;18.10;83.40;;;;;;5030862;28;20404;-68
2021/09/04 07:27:08;;;;;;;;;;;18.20;82.40;;;;;;5031123;28;19921;-69
2021/09/04 07:29:33;;;;;;;;;;;18.20;82.00;;;;;;5031846;28;20355;-68
2021/09/04 07:31:59;;;;;;;;;;;18.30;81.80;;;;;;5013693;28;20330;-69
2021/09/04 07:34:25;;;;;;;;;;;18.30;81.10;;;;;;5013893;28;20280;-68
2021/09/04 07:36:50;;;;;;;;;;;18.30;80.40;;;;;;5030097;28;19925;-68
2021/09/04 07:39:16;;;;;;;;;;;18.40;79.80;;;;;;5031366;28;20365;-69
2021/09/04 07:41:41;;;;;;;;;;;18.50;79.00;;;;;;5031570;28;19917;-68
2021/09/04 07:44:07;;;;;;;;;;;18.50;78.20;;;;;;5030991;28;20357;-69
2021/09/04 07:46:33;;;;;;;;;;;18.60;78.70;;;;;;5013226;28;19924;-68
2021/09/04 07:48:59;;;;;;;;;;;18.90;78.90;;;;;;5030757;28;19917;-69
2021/09/04 07:51:24;;;;;;;;;;;19.40;78.40;;;;;;5029907;28;19920;-68
2021/09/04 07:53:50;;;;;;;;;;;19.90;77.80;;;;;;5028884;28;19921;-68
2021/09/04 07:56:15;;;;;;;;;;;20.50;77.60;;;;;;5030228;28;19979;-68
2021/09/04 07:58:41;;;;;;;;;;;20.90;76.10;;;;;;5030572;28;20516;-69
2021/09/04 08:01:07;;;;;;;;;;;21.60;76.70;;;;;;5013637;28;19948;-69
2021/09/04 08:03:32;;;;;;;;;;;23.80;80.90;;;;;;5030789;28;19917;-69
2021/09/04 08:05:58;;;;;;;;;;;26.40;76.90;;;;;;5030199;28;19921;-68
2021/09/04 08:08:23;;;;;;;;;;;28.60;72.70;;;;;;5012361;28;20278;-69
2021/09/04 08:10:49;;;;;;;;;;;30.50;67.40;;;;;;5029817;28;19932;-69
2021/09/04 08:13:14;;;;;;;;;;;32.00;61.60;;;;;;5031198;28;20386;-69
2021/09/04 08:15:40;;;;;;;;;;;33.00;57.40;;;;;;5012133;28;19971;-69
2021/09/04 08:18:06;;;;;;;;;;;34.10;55.00;;;;;;5014156;28;20396;-69
2021/09/04 08:20:32;;;;;;;;;;;35.10;52.10;;;;;;5033917;28;19918;-69
2021/09/04 08:22:58;;;;;;;;;;;36.10;48.40;;;;;;5034262;28;20018;-70
2021/09/04 08:25:24;;;;;;;;;;;36.40;44.70;;;;;;5029891;28;20294;-70
2021/09/04 08:27:49;;;;;;;;;;;37.00;43.20;;;;;;5029827;28;19917;-70
2021/09/04 08:30:15;;;;;;;;;;;36.20;39.30;;;;;;5028580;28;19917;-70
2021/09/04 08:32:41;;;;;;;;;;;34.30;39.00;;;;;;5029827;28;19929;-69
2021/09/04 08:35:06;;;;;;;;;;;32.30;38.30;;;;;;5030326;28;20274;-69
2021/09/04 08:37:32;;;;;;;;;;;30.20;39.00;;;;;;5030114;28;20366;-69
2021/09/04 08:39:58;;;;;;;;;;;29.60;42.90;;;;;;5030794;28;20305;-69
2021/09/04 08:42:23;;;;;;;;;;;29.80;43.90;;;;;;5030320;28;19925;-69
2021/09/04 08:44:49;;;;;;;;;;;29.50;40.80;;;;;;5029396;28;19921;-69
2021/09/04 08:47:17;;;;;;;;;;;29.20;40.90;;;;;;4996335;28;20266;-69
2021/09/04 08:49:44;;;;;;;;;;;28.20;40.50;;;;;;5030285;28;19966;-69
2021/09/04 08:52:09;;;;;;;;;;;26.90;40.80;;;;;;4996529;28;19921;-69
2021/09/04 08:54:35;;;;;;;;;;;24.80;41.90;;;;;;5012821;28;20009;-68
2021/09/04 08:57:01;;;;;;;;;;;24.50;42.70;;;;;;5029747;28;19929;-69
2021/09/04 08:59:26;;;;;;;;;;;23.60;44.30;;;;;;5030636;28;19941;-69
2021/09/04 09:01:52;;;;;;;;;;;22.90;45.40;;;;;;5030701;28;19961;-69
2021/09/04 09:04:21;;;;;;;;;;;22.10;47.20;;;;;;5029970;28;19999;-69
2021/09/04 09:06:47;;;;;;;;;;;22.10;47.90;;;;;;5030018;28;19925;-69
2021/09/04 09:09:33;;;;;;;;;;;22.00;49.60;;;;;;5028706;28;20377;-68
2021/09/04 09:11:58;;;;;;;;;;;22.10;49.30;;;;;;5030022;28;19917;-67
2021/09/04 09:14:25;;;;;;;;;;;21.90;49.30;;;;;;5030005;28;19920;-67
2021/09/04 09:16:52;;;;;;;;;;;21.90;49.90;;;;;;5042873;28;20431;-67
2021/09/04 09:19:19;;;;;;;;;;;21.90;50.50;;;;;;5053670;28;19995;-67
2021/09/04 09:21:45;;;;;;;;;;;21.90;51.10;;;;;;5035622;28;19920;-67
2021/09/04 09:24:18;;;;;;;;;;;22.10;51.50;;;;;;5035981;28;20405;-67
2021/09/04 09:26:57;;;;;;;;;;;22.20;51.90;;;;;;5053077;28;19923;-67
2021/09/04 09:29:30;;;;;;;;;;;22.40;52.50;;;;;;5053484;28;20354;-67
2021/09/04 09:32:01;;;;;;;;;;;22.80;53.20;;;;;;5052800;28;20033;-67
2021/09/04 09:34:26;;;;;;;;;;;23.40;51.80;;;;;;5053516;28;19920;-67
2021/09/04 09:36:53;;;;;;;;;;;23.40;52.20;;;;;;5034929;28;20356;-66
2021/09/04 09:39:23;;;;;;;;;;;23.60;52.00;;;;;;5053061;28;19916;-67
2021/09/04 09:41:49;;;;;;;;;;;24.00;52.80;;;;;;5051328;28;19923;-68
2021/09/04 09:44:22;;;;;;;;;;;26.50;55.70;;;;;;5033842;28;20895;-67
2021/09/04 09:46:51;;;;;;;;;;;27.60;51.90;;;;;;5051248;28;20000;-67
2021/09/04 09:49:17;;;;;;;;;;;27.00;47.90;;;;;;5051991;28;19943;-67
2021/09/04 09:51:44;;;;;;;;;;;26.00;46.20;;;;;;5034744;28;19917;-67
2021/09/04 09:54:11;;;;;;;;;;;24.30;47.10;;;;;;5052453;28;19995;-67
2021/09/04 09:56:38;;;;;;;;;;;24.20;47.70;;;;;;5052919;28;19921;-67
2021/09/04 09:59:04;;;;;;;;;;;23.70;48.70;;;;;;5053404;28;19919;-66
2021/09/04 10:01:30;;;;;;;;;;;23.50;49.40;;;;;;5034971;28;19920;-66
2021/09/04 10:03:57;;;;;;;;;;;23.30;49.70;;;;;;5052544;28;21426;-66
2021/09/04 10:06:22;;;;;;;;;;;23.30;50.20;;;;;;5053686;28;20007;-67
2021/09/04 10:08:49;;;;;;;;;;;23.40;50.80;;;;;;5052683;28;19932;-67
2021/09/04 10:11:15;;;;;;;;;;;23.70;51.80;;;;;;5053217;28;19917;-66
2021/09/04 10:13:41;;;;;;;;;;;24.30;51.90;;;;;;5053212;28;20430;-66
2021/09/04 10:16:07;;;;;;;;;;;24.90;51.00;;;;;;5034545;28;20400;-66
2021/09/04 10:18:33;;;;;;;;;;;26.50;52.90;;;;;;5034976;28;19917;-67
2021/09/04 10:21:05;;;;;;;;;;;29.50;53.70;;;;;;5052259;28;19974;-67
2021/09/04 10:23:30;;;;;;;;;;;31.90;50.50;;;;;;5051657;28;19921;-67
2021/09/04 10:26:15;;;;;;;;;;;32.90;45.50;;;;;;5052341;28;20344;-67
2021/09/04 10:29:00;;;;;;;;;;;32.30;42.10;;;;;;5051103;28;20004;-67
2021/09/04 10:31:41;;;;;;;;;;;31.00;41.20;;;;;;5052563;28;19924;-65
2021/09/04 10:34:17;;;;;;;;;;;30.10;41.60;;;;;;5052138;28;20295;-67
2021/09/04 10:37:01;;;;;;;;;;;29.30;41.50;;;;;;5052453;28;20208;-67
2021/09/04 10:39:45;;;;;;;;;;;29.00;42.20;;;;;;5052743;28;19917;-68
2021/09/04 10:42:10;;;;;;;;;;;29.10;42.30;;;;;;5052352;28;19917;-68
2021/09/04 10:44:36;;;;;;;;;;;28.40;40.90;;;;;;5052474;28;19917;-67
2021/09/04 10:47:03;;;;;;;;;;;27.40;40.10;;;;;;5051808;28;19925;-67
2021/09/04 10:49:42;;;;;;;;;;;26.50;41.40;;;;;;5051574;28;19921;-67
2021/09/04 10:52:08;;;;;;;;;;;26.20;42.80;;;;;;5052441;28;19916;-68
2021/09/04 10:54:37;;;;;;;;;;;26.50;45.40;;;;;;5051863;28;20380;-68
2021/09/04 10:57:13;;;;;;;;;;;27.50;46.50;;;;;;5051062;28;19935;-68
2021/09/04 10:59:58;;;;;;;;;;;28.30;46.30;;;;;;5032659;28;19932;-68
2021/09/04 11:02:37;;;;;;;;;;;28.90;44.50;;;;;;5051163;28;20419;-68
2021/09/04 11:05:23;;;;;;;;;;;29.80;44.20;;;;;;5051539;28;20403;-68
2021/09/04 11:07:48;;;;;;;;;;;30.50;42.70;;;;;;5033112;28;19916;-68
2021/09/04 11:10:23;;;;;;;;;;;29.70;39.10;;;;;;5051724;28;19921;-68
2021/09/04 11:13:05;;;;;;;;;;;28.30;38.40;;;;;;5033805;28;19969;-67
2021/09/04 11:15:31;;;;;;;;;;;27.00;39.00;;;;;;5051654;28;19925;-67
2021/09/04 11:17:57;;;;;;;;;;;25.90;39.80;;;;;;5051428;28;20292;-66
2021/09/04 11:20:23;;;;;;;;;;;25.10;41.10;;;;;;5051327;28;19917;-67
2021/09/04 11:22:49;;;;;;;;;;;24.60;42.00;;;;;;5033779;28;20415;-68
2021/09/04 11:25:15;;;;;;;;;;;24.60;43.70;;;;;;5033537;28;19921;-67
2021/09/04 11:27:44;;;;;;;;;;;24.90;44.10;;;;;;5050741;28;19948;-68
2021/09/04 11:30:09;;;;;;;;;;;25.00;43.50;;;;;;5033616;28;19925;-67
2021/09/04 11:32:36;;;;;;;;;;;24.90;43.60;;;;;;5033810;28;19963;-68
2021/09/04 11:35:02;;;;;;;;;;;24.80;43.00;;;;;;5050582;28;20318;-68
2021/09/04 11:37:38;;;;;;;;;;;24.50;42.90;;;;;;5016809;28;19916;-68
2021/09/04 11:40:13;;;;;;;;;;;24.10;43.50;;;;;;5032912;28;19917;-68
2021/09/04 11:42:39;;;;;;;;;;;23.80;44.40;;;;;;5016903;28;19997;-66
2021/09/04 11:45:06;;;;;;;;;;;23.90;45.60;;;;;;5032958;28;20000;-67
2021/09/04 11:47:33;;;;;;;;;;;24.50;47.00;;;;;;5050784;28;19917;-67
2021/09/04 11:50:00;;;;;;;;;;;25.60;46.60;;;;;;5016510;28;19995;-67
2021/09/04 11:52:30;;;;;;;;;;;26.10;45.10;;;;;;5033086;28;20019;-67
2021/09/04 11:55:17;;;;;;;;;;;25.90;43.50;;;;;;5051007;28;19927;-68
2021/09/04 11:57:44;;;;;;;;;;;25.50;43.30;;;;;;5050287;28;19921;-67
2021/09/04 12:00:12;;;;;;;;;;;25.20;43.80;;;;;;5051197;28;19921;-67
2021/09/04 12:02:42;;;;;;;;;;;25.10;43.80;;;;;;5050698;28;19940;-67
2021/09/04 12:05:08;;;;;;;;;;;24.80;43.90;;;;;;5050874;28;19928;-68
2021/09/04 12:07:35;;;;;;;;;;;24.60;44.60;;;;;;5050587;28;19971;-67
2021/09/04 12:10:01;;;;;;;;;;;24.70;45.40;;;;;;5033064;28;20327;-68
2021/09/04 12:12:27;;;;;;;;;;;24.80;45.00;;;;;;5050900;28;19924;-68
2021/09/04 12:14:54;;;;;;;;;;;24.60;44.90;;;;;;5050402;28;19955;-67
2021/09/04 12:17:19;;;;;;;;;;;24.30;44.90;;;;;;5050683;28;19925;-68
2021/09/04 12:19:45;;;;;;;;;;;23.90;45.50;;;;;;5033167;28;19928;-68
2021/09/04 12:22:10;;;;;;;;;;;23.70;45.80;;;;;;5032736;28;19963;-68
2021/09/04 12:24:36;;;;;;;;;;;23.10;46.30;;;;;;5050789;28;19917;-67
2021/09/04 12:27:03;;;;;;;;;;;23.00;47.00;;;;;;5033039;28;20233;-67
2021/09/04 12:29:30;;;;;;;;;;;22.70;47.20;;;;;;5050614;28;19923;-68
2021/09/04 12:32:12;;;;;;;;;;;22.40;48.00;;;;;;5050664;28;19920;-67
2021/09/04 12:34:38;;;;;;;;;;;22.80;49.90;;;;;;5032571;28;19921;-67
2021/09/04 12:37:22;;;;;;;;;;;22.90;50.00;;;;;;5050400;28;20000;-67
2021/09/04 12:39:48;;;;;;;;;;;23.00;48.90;;;;;;5050289;28;19925;-67
2021/09/04 12:42:13;;;;;;;;;;;23.00;48.70;;;;;;5032867;28;19920;-68
2021/09/04 12:44:42;;;;;;;;;;;22.90;48.70;;;;;;5050293;28;20003;-67
2021/09/04 12:47:08;;;;;;;;;;;22.90;49.70;;;;;;5050236;28;19917;-67
2021/09/04 12:49:35;;;;;;;;;;;22.80;49.10;;;;;;5049937;28;20300;-69
2021/09/04 12:52:02;;;;;;;;;;;22.80;48.90;;;;;;5052638;28;20007;-67
2021/09/04 12:54:45;;;;;;;;;;;22.70;48.60;;;;;;5053864;28;20270;-67
2021/09/04 12:57:15;;;;;;;;;;;22.70;49.00;;;;;;5035779;28;19921;-68
2021/09/04 12:59:44;;;;;;;;;;;22.70;49.00;;;;;;5054317;28;19916;-68
2021/09/04 13:02:10;;;;;;;;;;;22.50;49.10;;;;;;5019233;28;20356;-68
2021/09/04 13:04:36;;;;;;;;;;;22.20;49.00;;;;;;5054072;28;19991;-68
2021/09/04 13:07:02;;;;;;;;;;;22.20;49.50;;;;;;5036159;28;19962;-67
2021/09/04 13:09:27;;;;;;;;;;;22.10;49.50;;;;;;5053690;28;19927;-66
2021/09/04 13:11:53;;;;;;;;;;;22.00;49.60;;;;;;5036406;28;20291;-67
2021/09/04 13:14:18;;;;;;;;;;;21.80;49.50;;;;;;5054082;28;20385;-67
2021/09/04 13:16:44;;;;;;;;;;;21.80;50.00;;;;;;5035821;28;19999;-67
2021/09/04 13:19:10;;;;;;;;;;;21.80;50.30;;;;;;5054248;28;20272;-68
2021/09/04 13:21:35;;;;;;;;;;;21.90;50.50;;;;;;5053617;28;19917;-67
2021/09/04 13:24:01;;;;;;;;;;;22.50;51.70;;;;;;5053809;28;19916;-68
2021/09/04 13:26:26;;;;;;;;;;;22.60;52.10;;;;;;5035740;28;20387;-67
2021/09/04 13:28:52;;;;;;;;;;;23.00;51.40;;;;;;5033593;28;19918;-68
2021/09/04 13:31:17;;;;;;;;;;;23.20;50.40;;;;;;5013011;28;19921;-68
2021/09/04 13:33:43;;;;;;;;;;;22.70;49.30;;;;;;5012845;28;19921;-68
2021/09/04 13:36:09;;;;;;;;;;;22.80;49.00;;;;;;5027174;28;19926;-68
2021/09/04 13:38:36;;;;;;;;;;;22.80;49.80;;;;;;5010812;28;19924;-67
2021/09/04 13:41:01;;;;;;;;;;;22.90;50.30;;;;;;4994195;28;19925;-68
2021/09/04 13:43:27;;;;;;;;;;;22.90;50.30;;;;;;5011505;28;19925;-68
2021/09/04 13:45:52;;;;;;;;;;;22.80;49.60;;;;;;5011777;28;19918;-68
2021/09/04 13:48:18;;;;;;;;;;;22.80;50.40;;;;;;5011217;28;20343;-67
2021/09/04 13:50:43;;;;;;;;;;;22.80;50.30;;;;;;5012251;28;19917;-68
2021/09/04 13:53:09;;;;;;;;;;;22.60;50.10;;;;;;5010858;28;19924;-66
2021/09/04 13:55:34;;;;;;;;;;;22.40;50.00;;;;;;5010379;28;19952;-68
2021/09/04 13:58:00;;;;;;;;;;;22.30;50.60;;;;;;4994844;28;19939;-68
2021/09/04 14:00:26;;;;;;;;;;;22.10;51.00;;;;;;5011532;28;19917;-66
2021/09/04 14:02:51;;;;;;;;;;;22.00;51.40;;;;;;4994376;28;19924;-68
2021/09/04 14:05:17;;;;;;;;;;;21.90;51.30;;;;;;5012175;28;20413;-68
2021/09/04 14:07:42;;;;;;;;;;;21.90;51.80;;;;;;5010621;28;19917;-68
2021/09/04 14:10:08;;;;;;;;;;;21.90;52.10;;;;;;5011865;28;20012;-68
2021/09/04 14:12:33;;;;;;;;;;;21.90;52.10;;;;;;5012005;28;19928;-68
2021/09/04 14:14:59;;;;;;;;;;;22.00;52.20;;;;;;5011591;28;19948;-67